^^
Saratoga-Weather Station Historical Data
Daily Summary for August 16, 2020 Units:  Metric    English   Both
Daily Weekly Monthly Yearly Custom
  High: Low: Average:
Temperature: 9.3 °C 9.1 °C 9.3 °C
Dew Point: 7.6 °C 7.3 °C 7.4 °C
Humidity: 90% 88% 88%
Wind Speed: 6.4km/h 0km/h 1.8km/h
Wind Gust: 14.5km/h - -
Wind- - SSW
Pressure: 1018.3 hPa 1018.0 hPa -
Precipitation: 0.0 mm    
Historical Graphs
 
 
Tabular Data for August 16, 2020
Time Temperature Dew Point Pressure Wind Wind Speed Wind Gust Humidity Rainfall Rate (Hourly) solar
00:01 9.1 °C 7.5 °C 1018.0 hPa SSE 3.2 km/h 3.2 km/h 90% 0.0 mm 0 W/m2
00:06 9.1 °C 7.5 °C 1018.0 hPa NW 3.2 km/h 3.2 km/h 90% 0.0 mm 0 W/m2
00:11 9.1 °C 7.4 °C 1018.0 hPa NE 3.2 km/h 4.8 km/h 89% 0.0 mm 0 W/m2
00:17 9.1 °C 7.4 °C 1018.0 hPa East 1.4 km/h 3.2 km/h 89% 0.0 mm 0 W/m2
00:22 9.1 °C 7.4 °C 1018.0 hPa NW 1.4 km/h 4.8 km/h 89% 0.0 mm 0 W/m2
00:27 9.1 °C 7.4 °C 1018.0 hPa North 4.7 km/h 6.4 km/h 89% 0.0 mm 0 W/m2
00:32 9.2 °C 7.5 °C 1018.0 hPa SW 4.7 km/h 6.4 km/h 89% 0.0 mm 0 W/m2
00:37 9.1 °C 7.4 °C 1018.0 hPa ENE 1.4 km/h 4.8 km/h 89% 0.0 mm 0 W/m2
00:42 9.2 °C 7.5 °C 1018.0 hPa Calm   4.8 km/h 89% 0.0 mm 0 W/m2
00:47 9.2 °C 7.5 °C 1018.0 hPa South 1.4 km/h 4.8 km/h 89% 0.0 mm 0 W/m2
00:52 9.2 °C 7.5 °C 1018.0 hPa SSW 1.4 km/h 6.4 km/h 89% 0.0 mm 0 W/m2
00:57 9.2 °C 7.5 °C 1018.0 hPa WNW 3.2 km/h   89% 0.0 mm 0 W/m2
01:02 9.2 °C 7.3 °C 1018.0 hPa SSE 1.4 km/h 6.4 km/h 88% 0.0 mm 0 W/m2
01:07 9.2 °C 7.3 °C 1018.0 hPa North 4.7 km/h 14.5 km/h 88% 0.0 mm 0 W/m2
01:12 9.2 °C 7.3 °C 1018.0 hPa North 1.4 km/h 8 km/h 88% 0.0 mm 0 W/m2
01:17 9.3 °C 7.4 °C 1018.0 hPa Calm   14.5 km/h 88% 0.0 mm 0 W/m2
01:22 9.3 °C 7.4 °C 1018.0 hPa North 1.4 km/h 3.2 km/h 88% 0.0 mm 0 W/m2
01:27 9.3 °C 7.4 °C 1018.3 hPa Calm   1.6 km/h 88% 0.0 mm 0 W/m2
01:32 9.3 °C 7.4 °C 1018.3 hPa ESE 1.4 km/h 3.2 km/h 88% 0.0 mm 0 W/m2
01:37 9.3 °C 7.4 °C 1018.3 hPa NNE 1.4 km/h 4.8 km/h 88% 0.0 mm 0 W/m2
01:42 9.3 °C 7.4 °C 1018.0 hPa ESE 3.2 km/h 4.8 km/h 88% 0.0 mm 0 W/m2
01:47 9.3 °C 7.4 °C 1018.3 hPa North 4.7 km/h 4.8 km/h 88% 0.0 mm 0 W/m2
01:52 9.3 °C 7.4 °C 1018.3 hPa NNW 3.2 km/h 4.8 km/h 88% 0.0 mm 0 W/m2
01:57 9.3 °C 7.4 °C 1018.3 hPa North 4.7 km/h 6.4 km/h 88% 0.0 mm 0 W/m2
02:02 9.3 °C 7.4 °C 1018.3 hPa Calm   3.2 km/h 88% 0.0 mm 0 W/m2
02:07 9.3 °C 7.4 °C 1018.3 hPa East 1.4 km/h 4.8 km/h 88% 0.0 mm 0 W/m2
02:12 9.3 °C 7.4 °C 1018.3 hPa East 1.4 km/h 3.2 km/h 88% 0.0 mm 0 W/m2
02:17 9.2 °C 7.3 °C 1018.3 hPa North 1.4 km/h 6.4 km/h 88% 0.0 mm 0 W/m2
02:22 9.3 °C 7.4 °C 1018.3 hPa Calm   3.2 km/h 88% 0.0 mm 0 W/m2
02:27 9.2 °C 7.3 °C 1018.3 hPa SW 1.4 km/h 3.2 km/h 88% 0.0 mm 0 W/m2
02:32 9.2 °C 7.3 °C 1018.3 hPa Calm   1.6 km/h 88% 0.0 mm 0 W/m2
02:38 9.3 °C 7.6 °C 1018.3 hPa ENE 3.2 km/h 6.4 km/h 89% 0.0 mm 0 W/m2
02:43 9.3 °C 7.6 °C 1018.3 hPa North 3.2 km/h 4.8 km/h 89% 0.0 mm 0 W/m2
02:48 9.3 °C 7.6 °C 1018.3 hPa North 4.7 km/h 11.3 km/h 89% 0.0 mm 0 W/m2
02:53 9.3 °C 7.6 °C 1018.3 hPa WNW 3.2 km/h 9.7 km/h 89% 0.0 mm 0 W/m2
02:58 9.3 °C 7.4 °C 1018.3 hPa Calm   4.8 km/h 88% 0.0 mm 0 W/m2
03:03 9.3 °C 7.4 °C 1018.3 hPa Calm   4.8 km/h 88% 0.0 mm 0 W/m2
03:08 9.3 °C 7.4 °C 1018.3 hPa NW 3.2 km/h 4.8 km/h 88% 0.0 mm 0 W/m2
03:13 9.3 °C 7.4 °C 1018.3 hPa West 1.4 km/h 4.8 km/h 88% 0.0 mm 0 W/m2
03:18 9.3 °C 7.6 °C 1018.3 hPa Calm   4.8 km/h 89% 0.0 mm 0 W/m2
03:23 9.3 °C 7.4 °C 1018.3 hPa ENE 3.2 km/h 4.8 km/h 88% 0.0 mm 0 W/m2
03:28 9.3 °C 7.4 °C 1018.3 hPa WSW 1.4 km/h 1.6 km/h 88% 0.0 mm 0 W/m2
03:33 9.3 °C 7.4 °C 1018.3 hPa West 3.2 km/h 3.2 km/h 88% 0.0 mm 0 W/m2
03:38 9.3 °C 7.4 °C 1018.3 hPa NE 1.4 km/h 3.2 km/h 88% 0.0 mm 0 W/m2
03:43 9.3 °C 7.4 °C 1018.3 hPa Calm   3.2 km/h 88% 0.0 mm 0 W/m2
03:48 9.3 °C 7.4 °C 1018.3 hPa Calm   4.8 km/h 88% 0.0 mm 0 W/m2
03:53 9.3 °C 7.4 °C 1018.3 hPa Calm   3.2 km/h 88% 0.0 mm 0 W/m2
03:58 9.3 °C 7.4 °C 1018.3 hPa Calm   6.4 km/h 88% 0.0 mm 0 W/m2
04:03 9.3 °C 7.4 °C 1018.3 hPa NNW 1.4 km/h 4.8 km/h 88% 0.0 mm 0 W/m2
04:08 9.3 °C 7.4 °C 1018.0 hPa Calm   6.4 km/h 88% 0.0 mm 0 W/m2
04:13 9.3 °C 7.4 °C 1018.0 hPa Calm   1.6 km/h 88% 0.0 mm 0 W/m2
04:18 9.3 °C 7.6 °C 1018.0 hPa Calm   3.2 km/h 89% 0.0 mm 0 W/m2
04:23 9.3 °C 7.4 °C 1018.0 hPa NW 1.4 km/h 4.8 km/h 88% 0.0 mm 0 W/m2
04:28 9.3 °C 7.4 °C 1018.0 hPa Calm   3.2 km/h 88% 0.0 mm 0 W/m2
04:34 9.3 °C 7.4 °C 1018.0 hPa WNW 3.2 km/h   88% 0.0 mm 0 W/m2
04:39 9.3 °C 7.4 °C 1018.0 hPa Calm   3.2 km/h 88% 0.0 mm 0 W/m2
04:44 9.3 °C 7.4 °C 1018.0 hPa Calm   4.8 km/h 88% 0.0 mm 0 W/m2
04:49 9.3 °C 7.4 °C 1018.0 hPa NNW 4.7 km/h 6.4 km/h 88% 0.0 mm 0 W/m2
04:54 9.3 °C 7.4 °C 1018.0 hPa NNW 3.2 km/h 4.8 km/h 88% 0.0 mm 0 W/m2
04:59 9.3 °C 7.4 °C 1018.0 hPa North 4.7 km/h 14.5 km/h 88% 0.0 mm 0 W/m2
05:04 9.3 °C 7.4 °C 1018.3 hPa North 1.4 km/h 3.2 km/h 88% 0.0 mm 0 W/m2
05:09 9.3 °C 7.4 °C 1018.3 hPa Calm   14.5 km/h 88% 0.0 mm 0 W/m2
05:14 9.3 °C 7.4 °C 1018.3 hPa North 4.7 km/h 8 km/h 88% 0.0 mm 0 W/m2
05:19 9.3 °C 7.4 °C 1018.3 hPa North 1.4 km/h 4.8 km/h 88% 0.0 mm 0 W/m2
05:24 9.3 °C 7.4 °C 1018.0 hPa East 3.2 km/h 9.7 km/h 88% 0.0 mm 0 W/m2
05:29 9.3 °C 7.4 °C 1018.0 hPa East 1.4 km/h 4.8 km/h 88% 0.0 mm 0 W/m2
05:34 9.3 °C 7.4 °C 1018.3 hPa Calm   6.4 km/h 88% 0.0 mm 0 W/m2
05:39 9.3 °C 7.4 °C 1018.3 hPa North 1.4 km/h 3.2 km/h 88% 0.0 mm 0 W/m2
05:44 9.3 °C 7.4 °C 1018.3 hPa Calm   3.2 km/h 88% 0.0 mm 0 W/m2
05:49 9.3 °C 7.4 °C 1018.3 hPa Calm   4.8 km/h 88% 0.0 mm 0 W/m2
05:54 9.3 °C 7.4 °C 1018.3 hPa SSE 1.4 km/h 3.2 km/h 88% 0.0 mm 0 W/m2
05:59 9.3 °C 7.4 °C 1018.3 hPa Calm   1.6 km/h 88% 0.0 mm 0 W/m2
06:04 9.3 °C 7.4 °C 1018.3 hPa NNW 1.4 km/h 4.8 km/h 88% 0.0 mm 0 W/m2
06:09 9.3 °C 7.4 °C 1018.3 hPa NNE 1.4 km/h 4.8 km/h 88% 0.0 mm 0 W/m2
06:14 9.3 °C 7.4 °C 1018.3 hPa NNE 3.2 km/h 4.8 km/h 88% 0.0 mm 0 W/m2
06:19 9.3 °C 7.4 °C 1018.3 hPa Calm   8 km/h 88% 0.0 mm 0 W/m2
06:24 9.3 °C 7.4 °C 1018.3 hPa Calm   6.4 km/h 88% 0.0 mm 0 W/m2
06:29 9.3 °C 7.4 °C 1018.3 hPa Calm   3.2 km/h 88% 0.0 mm 0 W/m2
06:34 9.2 °C 7.3 °C 1018.3 hPa NNW 1.4 km/h 6.4 km/h 88% 0.0 mm 0 W/m2
06:39 9.2 °C 7.3 °C 1018.3 hPa NW 1.4 km/h 4.8 km/h 88% 0.0 mm 0 W/m2
06:44 9.2 °C 7.3 °C 1018.3 hPa NNW 6.4 km/h 9.7 km/h 88% 0.0 mm 0 W/m2
06:49 9.2 °C 7.3 °C 1018.3 hPa East 4.7 km/h 4.8 km/h 88% 0.0 mm 0 W/m2
06:54 9.2 °C 7.3 °C 1018.3 hPa NE 3.2 km/h 4.8 km/h 88% 0.0 mm 0 W/m2
Juneau County Weather
Compliments of Weather Underground - 2 mb